createdAt,value
2023-04-02T00:02:20.393Z,100.00
2023-04-02T00:05:25.999Z,100.00
2023-04-02T00:07:57.894Z,100.00
2023-04-02T00:10:34.821Z,100.00
2023-04-02T00:13:31.100Z,100.00
2023-04-02T00:15:58.989Z,100.00
2023-04-02T00:18:26.700Z,100.00
2023-04-02T00:21:00.311Z,100.00
2023-04-02T00:23:27.158Z,100.00
2023-04-02T00:25:53.490Z,100.00
2023-04-02T00:28:22.365Z,100.00
2023-04-02T00:30:58.497Z,100.00
2023-04-02T00:33:28.521Z,100.00
2023-04-02T00:35:55.905Z,100.00
2023-04-02T00:38:32.058Z,100.00
2023-04-02T00:41:02.458Z,100.00
2023-04-02T00:43:34.827Z,100.00
2023-04-02T00:46:05.409Z,100.00
2023-04-02T00:48:31.810Z,100.00
2023-04-02T00:51:07.425Z,100.00
2023-04-02T00:53:34.568Z,100.00
2023-04-02T00:56:01.788Z,100.00
2023-04-02T00:58:36.619Z,100.00
2023-04-02T01:01:04.496Z,100.00
2023-04-02T01:03:36.581Z,100.00
2023-04-02T01:06:10.570Z,100.00
2023-04-02T01:09:12.982Z,100.00
2023-04-02T01:12:01.891Z,100.00
2023-04-02T01:14:43.721Z,100.00
2023-04-02T01:17:30.271Z,100.00
2023-04-02T01:20:22.428Z,100.00
2023-04-02T01:23:05.625Z,100.00
2023-04-02T01:25:47.726Z,100.00
2023-04-02T01:28:21.601Z,100.00
2023-04-02T01:30:52.649Z,100.00
2023-04-02T01:33:24.681Z,100.00
2023-04-02T01:36:09.041Z,100.00
2023-04-02T01:38:49.859Z,100.00
2023-04-02T01:41:38.702Z,100.00
2023-04-02T01:44:09.615Z,100.00
2023-04-02T01:46:41.826Z,100.00
2023-04-02T01:49:15.304Z,100.00
2023-04-02T01:51:44.640Z,100.00
2023-04-02T01:54:15.950Z,100.00
2023-04-02T01:56:44.304Z,100.00
2023-04-02T01:59:12.162Z,100.00
2023-04-02T02:01:51.790Z,100.00
2023-04-02T02:04:19.334Z,100.00
2023-04-02T02:06:47.179Z,100.00
2023-04-02T02:09:23.897Z,100.00
2023-04-02T02:11:51.310Z,100.00
2023-04-02T02:14:21.957Z,100.00
2023-04-02T02:16:49.169Z,100.00
2023-04-02T02:19:42.507Z,100.00
2023-04-02T02:22:32.231Z,100.00
2023-04-02T02:25:01.867Z,100.00
2023-04-02T02:28:04.233Z,100.00
2023-04-02T02:30:36.029Z,100.00
2023-04-02T02:33:20.780Z,100.00
2023-04-02T02:35:58.114Z,100.00
2023-04-02T02:38:41.614Z,100.00
2023-04-02T02:41:17.548Z,100.00
2023-04-02T02:43:53.425Z,100.00
2023-04-02T02:46:24.386Z,100.00
2023-04-02T02:48:53.728Z,100.00
2023-04-02T02:51:43.910Z,100.00
2023-04-02T02:54:18.405Z,100.00
2023-04-02T02:56:54.867Z,100.00
2023-04-02T02:59:22.742Z,100.00
2023-04-02T03:01:49.577Z,100.00
2023-04-02T03:04:22.462Z,100.00
2023-04-02T03:06:52.790Z,100.00
2023-04-02T03:09:42.256Z,100.00
2023-04-02T03:12:25.953Z,100.00
2023-04-02T03:15:08.131Z,100.00
2023-04-02T03:17:39.063Z,100.00
2023-04-02T03:20:47.786Z,100.00
2023-04-02T03:23:24.166Z,100.00
2023-04-02T03:25:56.138Z,100.00
2023-04-02T03:28:27.807Z,100.00
2023-04-02T03:31:10.013Z,100.00
2023-04-02T03:33:43.904Z,100.00
2023-04-02T03:36:49.918Z,100.00
2023-04-02T03:39:27.050Z,100.00
2023-04-02T03:42:05.633Z,100.00
2023-04-02T03:44:38.031Z,100.00
2023-04-02T03:47:12.894Z,100.00
2023-04-02T03:50:06.155Z,100.00
2023-04-02T03:52:36.561Z,100.00
2023-04-02T03:55:21.378Z,100.00
2023-04-02T03:58:04.254Z,100.00
2023-04-02T04:00:50.939Z,100.00
2023-04-02T04:03:30.283Z,100.00
2023-04-02T04:06:06.326Z,100.00
2023-04-02T04:08:42.269Z,100.00
2023-04-02T04:11:14.833Z,100.00
2023-04-02T04:13:47.687Z,100.00
2023-04-02T04:16:28.556Z,100.00
2023-04-02T04:19:07.985Z,100.00
2023-04-02T04:21:37.456Z,100.00
2023-04-02T04:24:25.680Z,100.00
2023-04-02T04:27:25.066Z,100.00
2023-04-02T04:30:24.308Z,100.00
2023-04-02T04:33:01.750Z,100.00
2023-04-02T04:35:33.119Z,100.00
2023-04-02T04:38:14.362Z,100.00
2023-04-02T04:40:52.279Z,100.00
2023-04-02T04:43:48.302Z,100.00
2023-04-02T04:46:26.074Z,100.00
2023-04-02T04:49:00.503Z,100.00
2023-04-02T04:51:39.072Z,100.00
2023-04-02T04:54:14.129Z,100.00
2023-04-02T04:56:50.130Z,100.00
2023-04-02T04:59:26.939Z,100.00
2023-04-02T05:02:04.686Z,100.00
2023-04-02T05:04:38.875Z,100.00
2023-04-02T05:07:19.877Z,100.00
2023-04-02T05:09:55.293Z,100.00
2023-04-02T05:12:39.456Z,100.00
2023-04-02T05:15:20.277Z,100.00
2023-04-02T05:17:53.313Z,100.00
2023-04-02T05:20:33.417Z,100.00
2023-04-02T05:23:10.546Z,100.00
2023-04-02T05:25:49.179Z,100.00
2023-04-02T05:28:30.599Z,100.00
2023-04-02T05:31:08.740Z,100.00
2023-04-02T05:33:37.160Z,100.00
2023-04-02T05:36:12.226Z,100.00
2023-04-02T05:38:46.314Z,100.00
2023-04-02T05:41:31.396Z,100.00
2023-04-02T05:44:20.380Z,100.00
2023-04-02T05:47:12.353Z,100.00
2023-04-02T05:49:39.132Z,100.00
2023-04-02T05:52:13.959Z,100.00
2023-04-02T05:55:05.232Z,100.00
2023-04-02T05:57:49.577Z,100.00
2023-04-02T06:00:32.806Z,100.00
2023-04-02T06:03:07.234Z,100.00
2023-04-02T06:05:39.889Z,100.00
2023-04-02T06:08:10.713Z,100.00
2023-04-02T06:10:50.087Z,100.00
2023-04-02T06:13:19.132Z,100.00
2023-04-02T06:15:47.772Z,100.00
2023-04-02T06:18:24.841Z,100.00
2023-04-02T06:20:52.336Z,100.00
2023-04-02T06:23:33.171Z,100.00
2023-04-02T06:26:26.216Z,100.00
2023-04-02T06:29:08.286Z,100.00
2023-04-02T06:31:41.920Z,100.00
2023-04-02T06:34:22.347Z,100.00
2023-04-02T06:37:17.208Z,100.00
2023-04-02T06:39:44.217Z,100.00
2023-04-02T06:42:19.161Z,100.00
2023-04-02T06:44:59.264Z,100.00
2023-04-02T06:47:48.564Z,100.00
2023-04-02T06:50:27.617Z,100.00
2023-04-02T06:52:58.547Z,100.00
2023-04-02T06:55:47.389Z,100.00
2023-04-02T06:58:17.659Z,100.00
2023-04-02T07:00:46.986Z,100.00
2023-04-02T07:03:32.110Z,100.00
2023-04-02T07:06:04.865Z,100.00
2023-04-02T07:08:33.382Z,100.00
2023-04-02T07:11:00.621Z,100.00
2023-04-02T07:13:27.658Z,100.00
2023-04-02T07:15:55.079Z,100.00
2023-04-02T07:18:23.342Z,100.00
2023-04-02T07:20:51.062Z,100.00
2023-04-02T07:23:20.951Z,100.00
2023-04-02T07:25:52.829Z,100.00
2023-04-02T07:28:20.877Z,100.00
2023-04-02T07:30:49.222Z,100.00
2023-04-02T07:33:17.623Z,100.00
2023-04-02T07:35:45.275Z,100.00
2023-04-02T07:38:11.768Z,100.00
2023-04-02T07:40:38.526Z,100.00
2023-04-02T07:43:06.217Z,100.00
2023-04-02T07:45:32.553Z,100.00
2023-04-02T07:48:06.267Z,100.00
2023-04-02T07:50:33.055Z,100.00
2023-04-02T07:53:00.148Z,100.00
2023-04-02T07:55:26.743Z,100.00
2023-04-02T07:57:55.611Z,100.00
2023-04-02T08:00:23.654Z,100.00
2023-04-02T08:02:50.550Z,100.00
2023-04-02T08:05:17.970Z,100.00
2023-04-02T08:07:51.604Z,100.00
2023-04-02T08:10:19.096Z,100.00
2023-04-02T08:12:45.547Z,100.00
2023-04-02T08:15:15.058Z,100.00
2023-04-02T08:17:43.004Z,100.00
2023-04-02T08:20:18.573Z,100.00
2023-04-02T08:22:46.110Z,100.00
2023-04-02T08:25:12.687Z,100.00
2023-04-02T08:27:39.171Z,100.00
2023-04-02T08:30:07.563Z,100.00
2023-04-02T08:32:34.106Z,100.00
2023-04-02T08:35:00.633Z,100.00
2023-04-02T08:37:27.057Z,100.00
2023-04-02T08:39:53.402Z,100.00
2023-04-02T08:42:43.889Z,100.00
2023-04-02T08:45:32.165Z,100.00
2023-04-02T08:47:59.897Z,100.00
2023-04-02T08:50:32.677Z,100.00
2023-04-02T08:53:02.235Z,100.00
2023-04-02T08:55:42.604Z,100.00
2023-04-02T08:58:41.499Z,100.00
2023-04-02T09:01:18.870Z,100.00
2023-04-02T09:03:47.659Z,100.00
2023-04-02T09:06:18.928Z,100.00
2023-04-02T09:08:47.162Z,100.00
2023-04-02T09:11:19.519Z,100.00
2023-04-02T09:13:48.718Z,100.00
2023-04-02T09:16:17.610Z,100.00
2023-04-02T09:18:45.436Z,100.00
2023-04-02T09:21:20.998Z,100.00
2023-04-02T09:23:48.525Z,100.00
2023-04-02T09:26:24.274Z,100.00
2023-04-02T09:28:52.667Z,100.00
2023-04-02T09:31:25.400Z,100.00
2023-04-02T09:33:54.447Z,100.00
2023-04-02T09:36:39.516Z,100.00
2023-04-02T09:39:19.809Z,100.00
2023-04-02T09:41:55.691Z,100.00
2023-04-02T09:44:31.385Z,100.00
2023-04-02T09:47:03.909Z,100.00
2023-04-02T09:49:40.163Z,100.00
2023-04-02T09:52:19.677Z,100.00
2023-04-02T09:54:47.540Z,100.00
2023-04-02T09:57:24.675Z,100.00
2023-04-02T10:00:39.716Z,100.00
2023-04-02T10:03:28.616Z,100.00
2023-04-02T10:06:05.159Z,100.00
2023-04-02T10:08:32.468Z,100.00
2023-04-02T10:11:01.784Z,100.00
2023-04-02T10:13:54.727Z,100.00
2023-04-02T10:16:41.927Z,100.00
2023-04-02T10:19:23.058Z,100.00
2023-04-02T10:21:50.073Z,100.00
2023-04-02T10:24:17.127Z,100.00
2023-04-02T10:26:43.427Z,100.00
2023-04-02T10:29:15.830Z,100.00
2023-04-02T10:32:08.707Z,100.00
2023-04-02T10:34:43.902Z,100.00
2023-04-02T10:37:48.766Z,100.00
2023-04-02T10:40:29.455Z,100.00
2023-04-02T10:43:47.172Z,100.00
2023-04-02T10:46:25.356Z,100.00
2023-04-02T10:49:00.389Z,100.00
2023-04-02T10:51:32.709Z,100.00
2023-04-02T10:54:23.067Z,100.00
2023-04-02T10:56:53.184Z,100.00
2023-04-02T10:59:24.767Z,100.00
2023-04-02T11:01:55.242Z,100.00
2023-04-02T11:04:27.487Z,100.00
2023-04-02T11:07:11.103Z,100.00
2023-04-02T11:09:45.367Z,100.00
2023-04-02T11:12:23.552Z,100.00
2023-04-02T11:14:52.227Z,100.00
2023-04-02T11:17:19.126Z,100.00
2023-04-02T11:19:45.543Z,100.00
2023-04-02T11:22:24.446Z,100.00
2023-04-02T11:24:53.632Z,100.00
2023-04-02T11:27:27.031Z,100.00
2023-04-02T11:30:03.755Z,100.00
2023-04-02T11:32:36.506Z,100.00
2023-04-02T11:35:32.822Z,100.00
2023-04-02T11:38:12.129Z,100.00
2023-04-02T11:40:44.627Z,100.00
2023-04-02T11:43:32.833Z,100.00
2023-04-02T11:46:01.643Z,100.00
2023-04-02T11:48:37.240Z,100.00
2023-04-02T11:51:36.053Z,100.00
2023-04-02T11:54:04.096Z,100.00
2023-04-02T11:56:43.373Z,100.00
2023-04-02T11:59:33.162Z,100.00
2023-04-02T12:02:20.508Z,100.00
2023-04-02T12:05:04.946Z,100.00
2023-04-02T12:07:55.637Z,100.00
2023-04-02T12:10:27.600Z,100.00
2023-04-02T12:12:53.972Z,100.00
2023-04-02T12:15:32.655Z,100.00
2023-04-02T12:18:25.234Z,100.00
2023-04-02T12:20:55.027Z,100.00
2023-04-02T12:23:33.768Z,100.00
2023-04-02T12:26:23.089Z,100.00
2023-04-02T12:28:49.452Z,100.00
2023-04-02T12:31:19.952Z,100.00
2023-04-02T12:33:46.581Z,100.00
2023-04-02T12:36:15.957Z,100.00
2023-04-02T12:38:57.079Z,100.00
2023-04-02T12:41:33.240Z,100.00
2023-04-02T12:44:21.837Z,100.00
2023-04-02T12:46:49.664Z,100.00
2023-04-02T12:49:31.778Z,100.00
2023-04-02T12:51:59.378Z,100.00
2023-04-02T12:54:25.844Z,100.00
2023-04-02T12:56:52.296Z,100.00
2023-04-02T12:59:36.081Z,100.00
2023-04-02T13:02:16.143Z,100.00
2023-04-02T13:04:50.843Z,100.00
2023-04-02T13:07:19.801Z,100.00
2023-04-02T13:09:51.646Z,100.00
2023-04-02T13:12:27.640Z,100.00
2023-04-02T13:14:56.245Z,100.00
2023-04-02T13:17:45.719Z,100.00
2023-04-02T13:20:42.879Z,100.00
2023-04-02T13:23:32.883Z,100.00
2023-04-02T13:26:11.655Z,100.00
2023-04-02T13:28:38.213Z,100.00
2023-04-02T13:31:04.608Z,100.00
2023-04-02T13:33:30.987Z,100.00
2023-04-02T13:35:57.348Z,100.00
2023-04-02T13:38:23.785Z,100.00
2023-04-02T13:40:51.254Z,100.00
2023-04-02T13:43:19.643Z,100.00
2023-04-02T13:45:53.192Z,100.00
2023-04-02T13:48:19.741Z,100.00
2023-04-02T13:50:46.599Z,100.00
2023-04-02T13:53:24.171Z,100.00
2023-04-02T13:55:52.003Z,100.00
2023-04-02T13:58:18.993Z,100.00
2023-04-02T14:00:46.423Z,100.00
2023-04-02T14:03:21.703Z,100.00
2023-04-02T14:05:54.160Z,100.00
2023-04-02T14:08:30.912Z,100.00
2023-04-02T14:11:28.669Z,100.00
2023-04-02T14:14:23.604Z,100.00
2023-04-02T14:16:56.434Z,100.00
2023-04-02T14:19:52.733Z,100.00
2023-04-02T14:22:27.996Z,100.00
2023-04-02T14:25:12.630Z,100.00
2023-04-02T14:27:59.219Z,100.00
2023-04-02T14:30:44.322Z,100.00
2023-04-02T14:33:23.694Z,100.00
2023-04-02T14:35:59.440Z,100.00
2023-04-02T14:39:06.983Z,100.00
2023-04-02T14:41:59.001Z,100.00
2023-04-02T14:44:30.340Z,100.00
2023-04-02T14:47:08.464Z,100.00
2023-04-02T14:49:42.984Z,100.00
2023-04-02T14:52:17.743Z,100.00
2023-04-02T14:54:52.910Z,100.00
2023-04-02T14:57:23.700Z,99.92
2023-04-02T15:00:05.066Z,100.00
2023-04-02T15:02:45.235Z,100.00
2023-04-02T15:05:18.541Z,100.00
2023-04-02T15:08:09.406Z,99.62
2023-04-02T15:10:51.616Z,100.00
2023-04-02T15:13:21.611Z,100.00
2023-04-02T15:15:56.190Z,99.99
2023-04-02T15:18:23.483Z,99.72
2023-04-02T15:20:59.430Z,97.35
2023-04-02T15:23:41.761Z,97.63
2023-04-02T15:26:38.361Z,98.31
2023-04-02T15:29:29.627Z,97.32
2023-04-02T15:32:18.894Z,98.20
2023-04-02T15:34:57.623Z,97.38
2023-04-02T15:37:36.049Z,98.25
2023-04-02T15:40:24.817Z,96.93
2023-04-02T15:42:55.503Z,96.60
2023-04-02T15:45:59.209Z,97.22
2023-04-02T15:48:41.170Z,95.34
2023-04-02T15:51:19.259Z,94.50
2023-04-02T15:53:57.023Z,93.72
2023-04-02T15:56:37.833Z,94.94
2023-04-02T15:59:29.009Z,94.04
2023-04-02T16:02:17.271Z,93.24
2023-04-02T16:04:57.081Z,94.40
2023-04-02T16:08:01.070Z,93.77
2023-04-02T16:10:42.040Z,92.66
2023-04-02T16:13:19.508Z,93.25
2023-04-02T16:15:53.441Z,93.40
2023-04-02T16:18:43.199Z,92.91
2023-04-02T16:21:16.859Z,92.12
2023-04-02T16:23:43.188Z,89.13
2023-04-02T16:26:31.127Z,91.10
2023-04-02T16:29:13.827Z,91.23
2023-04-02T16:32:06.398Z,89.26
2023-04-02T16:35:40.759Z,89.25
2023-04-02T16:38:22.127Z,87.41
2023-04-02T16:41:30.425Z,88.78
2023-04-02T16:44:21.560Z,88.04
2023-04-02T16:47:12.774Z,88.26
2023-04-02T16:50:14.175Z,88.87
2023-04-02T16:53:01.352Z,89.15
2023-04-02T16:55:45.318Z,88.37
2023-04-02T16:58:34.068Z,88.53
2023-04-02T17:01:31.874Z,86.03
2023-04-02T17:04:08.815Z,85.77
2023-04-02T17:06:42.366Z,85.70
2023-04-02T17:09:28.287Z,85.12
2023-04-02T17:12:11.578Z,84.82
2023-04-02T17:14:51.955Z,85.52
2023-04-02T17:17:20.546Z,86.21
2023-04-02T17:19:50.268Z,86.59
2023-04-02T17:22:20.263Z,86.53
2023-04-02T17:25:02.890Z,86.50
2023-04-02T17:27:39.270Z,88.01
2023-04-02T17:30:34.202Z,87.59
2023-04-02T17:33:00.745Z,87.34
2023-04-02T17:35:48.685Z,86.98
2023-04-02T17:38:25.925Z,86.34
2023-04-02T17:41:09.676Z,84.26
2023-04-02T17:44:02.732Z,85.86
2023-04-02T17:46:38.632Z,85.80
2023-04-02T17:49:13.414Z,85.75
2023-04-02T17:51:51.799Z,86.45
2023-04-02T17:54:37.024Z,85.08
2023-04-02T17:57:19.202Z,83.08
2023-04-02T18:00:33.642Z,82.23
2023-04-02T18:03:10.228Z,82.40
2023-04-02T18:05:45.620Z,80.96
2023-04-02T18:08:32.899Z,81.35
2023-04-02T18:11:14.355Z,81.68
2023-04-02T18:14:00.244Z,81.67
2023-04-02T18:16:55.591Z,81.18
2023-04-02T18:19:30.937Z,81.94
2023-04-02T18:22:15.258Z,81.51
2023-04-02T18:25:03.246Z,82.10
2023-04-02T18:27:50.598Z,81.74
2023-04-02T18:30:32.173Z,83.48
2023-04-02T18:33:18.794Z,84.20
2023-04-02T18:36:18.490Z,83.17
2023-04-02T18:38:57.568Z,84.20
2023-04-02T18:41:39.228Z,83.52
2023-04-02T18:44:14.702Z,84.34
2023-04-02T18:46:54.099Z,83.15
2023-04-02T18:49:28.689Z,83.64
2023-04-02T18:52:01.261Z,84.42
2023-04-02T18:54:33.340Z,82.57
2023-04-02T18:57:02.639Z,83.37
2023-04-02T18:59:48.458Z,83.63
2023-04-02T19:02:20.917Z,82.91
2023-04-02T19:05:00.256Z,80.54
2023-04-02T19:07:29.384Z,81.35
2023-04-02T19:09:59.436Z,81.08
2023-04-02T19:12:26.128Z,81.24
2023-04-02T19:14:53.565Z,82.22
2023-04-02T19:17:38.331Z,81.90
2023-04-02T19:20:25.026Z,81.23
2023-04-02T19:23:09.923Z,81.88
2023-04-02T19:25:42.515Z,82.52
2023-04-02T19:28:23.170Z,81.59
2023-04-02T19:31:23.187Z,82.42
2023-04-02T19:34:10.532Z,83.41
2023-04-02T19:37:05.527Z,82.70
2023-04-02T19:40:03.160Z,82.53
2023-04-02T19:42:42.187Z,82.55
2023-04-02T19:45:26.832Z,82.33
2023-04-02T19:47:53.582Z,83.23
2023-04-02T19:50:19.954Z,83.33
2023-04-02T19:52:46.279Z,82.90
2023-04-02T19:55:12.729Z,82.20
2023-04-02T19:57:39.116Z,82.73
2023-04-02T20:00:06.505Z,83.33
2023-04-02T20:02:38.448Z,80.35
2023-04-02T20:05:05.220Z,81.43
2023-04-02T20:07:31.564Z,81.24
2023-04-02T20:09:57.860Z,82.49
2023-04-02T20:12:24.217Z,82.66
2023-04-02T20:14:50.812Z,81.54
2023-04-02T20:17:17.171Z,81.11
2023-04-02T20:19:43.513Z,81.24
2023-04-02T20:22:09.865Z,81.27
2023-04-02T20:24:36.347Z,81.28
2023-04-02T20:27:02.665Z,79.05
2023-04-02T20:29:30.659Z,81.06
2023-04-02T20:31:56.979Z,80.77
2023-04-02T20:34:23.515Z,81.44
2023-04-02T20:36:50.003Z,81.24
2023-04-02T20:39:19.346Z,81.26
2023-04-02T20:41:46.485Z,81.66
2023-04-02T20:44:13.292Z,81.86
2023-04-02T20:46:40.994Z,81.53
2023-04-02T20:49:07.410Z,81.37
2023-04-02T20:51:34.341Z,82.03
2023-04-02T20:54:00.715Z,81.37
2023-04-02T20:56:27.686Z,81.91
2023-04-02T20:58:54.037Z,81.87
2023-04-02T21:01:23.359Z,82.38
2023-04-02T21:03:54.452Z,82.84
2023-04-02T21:06:23.006Z,82.39
2023-04-02T21:08:49.870Z,82.23
2023-04-02T21:11:16.445Z,82.20
2023-04-02T21:13:43.747Z,81.75
2023-04-02T21:16:17.647Z,84.85
2023-04-02T21:18:44.097Z,83.49
2023-04-02T21:21:15.387Z,85.57
2023-04-02T21:23:43.639Z,85.15
2023-04-02T21:26:12.859Z,85.98
2023-04-02T21:28:39.476Z,87.97
2023-04-02T21:31:18.166Z,86.87
2023-04-02T21:33:47.200Z,87.06
2023-04-02T21:36:22.284Z,89.14
2023-04-02T21:38:54.296Z,88.97
2023-04-02T21:41:27.636Z,89.32
2023-04-02T21:43:55.684Z,88.72
2023-04-02T21:46:25.949Z,89.41
2023-04-02T21:48:54.119Z,90.11
2023-04-02T21:51:22.956Z,90.20
2023-04-02T21:53:49.826Z,90.81
2023-04-02T21:56:22.569Z,89.55
2023-04-02T21:58:50.518Z,90.11
2023-04-02T22:01:26.680Z,90.22
2023-04-02T22:03:59.157Z,89.95
2023-04-02T22:06:28.013Z,90.72
2023-04-02T22:08:56.044Z,91.25
2023-04-02T22:11:25.918Z,90.86
2023-04-02T22:13:52.836Z,91.67
2023-04-02T22:16:22.314Z,91.68
2023-04-02T22:18:50.456Z,92.85
2023-04-02T22:21:17.424Z,91.18
2023-04-02T22:23:44.715Z,91.11
2023-04-02T22:26:12.297Z,90.59
2023-04-02T22:28:38.897Z,93.17
2023-04-02T22:31:13.232Z,93.51
2023-04-02T22:33:40.289Z,92.83
2023-04-02T22:36:06.797Z,91.92
2023-04-02T22:38:34.154Z,91.87
2023-04-02T22:41:10.917Z,92.09
2023-04-02T22:43:38.308Z,93.48
2023-04-02T22:46:06.406Z,94.56
2023-04-02T22:48:33.079Z,92.67
2023-04-02T22:50:59.414Z,92.61
2023-04-02T22:53:26.218Z,92.73
2023-04-02T22:55:53.026Z,93.16
2023-04-02T22:58:20.909Z,94.92
2023-04-02T23:00:48.098Z,95.77
2023-04-02T23:03:14.406Z,95.87
2023-04-02T23:05:42.328Z,96.11
2023-04-02T23:08:08.795Z,95.63
2023-04-02T23:10:35.406Z,94.48
2023-04-02T23:13:02.023Z,93.42
2023-04-02T23:15:28.376Z,93.96
2023-04-02T23:17:54.770Z,94.85
2023-04-02T23:20:21.214Z,96.05
2023-04-02T23:22:47.521Z,97.42
2023-04-02T23:25:13.840Z,96.09
2023-04-02T23:27:40.215Z,95.25
2023-04-02T23:30:08.588Z,95.19
2023-04-02T23:32:36.007Z,96.60
2023-04-02T23:35:02.283Z,96.69
2023-04-02T23:37:28.604Z,97.22
2023-04-02T23:39:54.925Z,96.66
2023-04-02T23:42:21.211Z,94.91
2023-04-02T23:44:47.584Z,94.36
2023-04-02T23:47:13.929Z,94.73
2023-04-02T23:49:42.039Z,94.60
2023-04-02T23:52:08.324Z,94.74
2023-04-02T23:54:34.637Z,94.44
2023-04-02T23:57:00.964Z,95.54
2023-04-02T23:59:27.260Z,95.05
